sensor_id;sensor_type;location;lat;lon;timestamp;P1;durP1;ratioP1;P2;durP2;ratioP2
8490;SDS011;4282;49.986;7.938;2024-01-06T00:28:54;6.53;;;2.87;;
8490;SDS011;4282;49.986;7.938;2024-01-06T00:31:25;6.83;;;2.80;;
8490;SDS011;4282;49.986;7.938;2024-01-06T00:33:53;6.23;;;3.10;;
8490;SDS011;4282;49.986;7.938;2024-01-06T00:36:21;4.00;;;2.73;;
8490;SDS011;4282;49.986;7.938;2024-01-06T00:38:49;4.20;;;2.90;;
8490;SDS011;4282;49.986;7.938;2024-01-06T00:41:17;4.90;;;2.70;;
8490;SDS011;4282;49.986;7.938;2024-01-06T00:43:46;4.13;;;2.20;;
8490;SDS011;4282;49.986;7.938;2024-01-06T00:46:14;4.67;;;2.30;;
8490;SDS011;4282;49.986;7.938;2024-01-06T00:48:45;4.77;;;2.60;;
8490;SDS011;4282;49.986;7.938;2024-01-06T00:51:13;4.37;;;2.30;;
8490;SDS011;4282;49.986;7.938;2024-01-06T00:53:41;6.33;;;2.33;;
8490;SDS011;4282;49.986;7.938;2024-01-06T00:56:09;4.97;;;2.40;;
8490;SDS011;4282;49.986;7.938;2024-01-06T00:58:37;4.53;;;2.97;;
8490;SDS011;4282;49.986;7.938;2024-01-06T01:01:06;3.17;;;1.70;;
8490;SDS011;4282;49.986;7.938;2024-01-06T01:03:34;3.90;;;2.20;;
8490;SDS011;4282;49.986;7.938;2024-01-06T01:06:05;2.93;;;1.87;;
8490;SDS011;4282;49.986;7.938;2024-01-06T01:08:33;3.53;;;1.60;;
8490;SDS011;4282;49.986;7.938;2024-01-06T01:11:02;5.60;;;1.97;;
8490;SDS011;4282;49.986;7.938;2024-01-06T01:13:30;5.80;;;2.53;;
8490;SDS011;4282;49.986;7.938;2024-01-06T01:15:58;4.83;;;2.00;;
8490;SDS011;4282;49.986;7.938;2024-01-06T01:18:28;2.33;;;1.80;;
8490;SDS011;4282;49.986;7.938;2024-01-06T01:20:56;6.63;;;2.27;;
8490;SDS011;4282;49.986;7.938;2024-01-06T01:23:27;3.87;;;1.93;;
8490;SDS011;4282;49.986;7.938;2024-01-06T01:25:55;3.77;;;1.90;;
8490;SDS011;4282;49.986;7.938;2024-01-06T01:28:23;4.70;;;2.07;;
8490;SDS011;4282;49.986;7.938;2024-01-06T01:30:51;2.93;;;1.77;;
8490;SDS011;4282;49.986;7.938;2024-01-06T01:33:19;5.23;;;1.90;;
8490;SDS011;4282;49.986;7.938;2024-01-06T01:35:48;3.90;;;2.00;;
8490;SDS011;4282;49.986;7.938;2024-01-06T01:38:16;2.97;;;1.87;;
8490;SDS011;4282;49.986;7.938;2024-01-06T01:40:47;3.43;;;2.37;;
8490;SDS011;4282;49.986;7.938;2024-01-06T01:43:15;3.97;;;2.20;;
8490;SDS011;4282;49.986;7.938;2024-01-06T01:45:45;3.27;;;2.10;;
8490;SDS011;4282;49.986;7.938;2024-01-06T01:48:23;3.63;;;2.10;;
8490;SDS011;4282;49.986;7.938;2024-01-06T01:50:51;6.67;;;2.40;;
8490;SDS011;4282;49.986;7.938;2024-01-06T01:53:20;5.87;;;2.80;;
8490;SDS011;4282;49.986;7.938;2024-01-06T01:55:53;3.10;;;2.10;;
8490;SDS011;4282;49.986;7.938;2024-01-06T01:58:22;2.43;;;2.10;;
8490;SDS011;4282;49.986;7.938;2024-01-06T02:00:50;2.90;;;2.30;;
8490;SDS011;4282;49.986;7.938;2024-01-06T02:03:18;5.23;;;2.30;;
8490;SDS011;4282;49.986;7.938;2024-01-06T02:05:47;4.17;;;2.43;;
8490;SDS011;4282;49.986;7.938;2024-01-06T02:08:15;5.70;;;2.27;;
8490;SDS011;4282;49.986;7.938;2024-01-06T02:10:43;5.67;;;2.40;;
8490;SDS011;4282;49.986;7.938;2024-01-06T02:13:14;5.57;;;2.60;;
8490;SDS011;4282;49.986;7.938;2024-01-06T02:15:42;4.27;;;2.60;;
8490;SDS011;4282;49.986;7.938;2024-01-06T02:18:10;3.87;;;2.13;;
8490;SDS011;4282;49.986;7.938;2024-01-06T02:20:39;2.63;;;1.97;;
8490;SDS011;4282;49.986;7.938;2024-01-06T02:23:12;3.60;;;2.10;;
8490;SDS011;4282;49.986;7.938;2024-01-06T02:25:40;6.17;;;2.73;;
8490;SDS011;4282;49.986;7.938;2024-01-06T02:28:08;3.70;;;2.27;;
8490;SDS011;4282;49.986;7.938;2024-01-06T02:30:36;5.17;;;2.57;;
8490;SDS011;4282;49.986;7.938;2024-01-06T02:33:05;3.97;;;2.03;;
8490;SDS011;4282;49.986;7.938;2024-01-06T02:35:33;2.93;;;2.30;;
8490;SDS011;4282;49.986;7.938;2024-01-06T02:38:01;4.40;;;2.10;;
8490;SDS011;4282;49.986;7.938;2024-01-06T02:40:32;5.30;;;2.00;;
8490;SDS011;4282;49.986;7.938;2024-01-06T02:43:01;3.73;;;2.20;;
8490;SDS011;4282;49.986;7.938;2024-01-06T02:45:29;3.17;;;2.07;;
8490;SDS011;4282;49.986;7.938;2024-01-06T02:47:57;3.60;;;2.13;;
8490;SDS011;4282;49.986;7.938;2024-01-06T02:50:25;4.20;;;2.27;;
8490;SDS011;4282;49.986;7.938;2024-01-06T02:52:54;6.27;;;2.37;;
8490;SDS011;4282;49.986;7.938;2024-01-06T02:55:22;8.03;;;2.43;;
8490;SDS011;4282;49.986;7.938;2024-01-06T02:57:53;4.30;;;2.40;;
8490;SDS011;4282;49.986;7.938;2024-01-06T03:00:21;3.07;;;2.17;;
8490;SDS011;4282;49.986;7.938;2024-01-06T03:02:50;5.33;;;2.67;;
8490;SDS011;4282;49.986;7.938;2024-01-06T03:05:18;6.03;;;2.00;;
8490;SDS011;4282;49.986;7.938;2024-01-06T03:07:47;2.30;;;1.57;;
8490;SDS011;4282;49.986;7.938;2024-01-06T03:10:15;5.00;;;1.97;;
8490;SDS011;4282;49.986;7.938;2024-01-06T03:12:43;3.70;;;2.00;;
8490;SDS011;4282;49.986;7.938;2024-01-06T03:15:14;5.63;;;1.80;;
8490;SDS011;4282;49.986;7.938;2024-01-06T03:17:42;4.43;;;2.47;;
8490;SDS011;4282;49.986;7.938;2024-01-06T03:20:11;2.83;;;1.67;;
8490;SDS011;4282;49.986;7.938;2024-01-06T03:22:39;5.57;;;2.20;;
8490;SDS011;4282;49.986;7.938;2024-01-06T03:25:08;3.03;;;1.50;;
8490;SDS011;4282;49.986;7.938;2024-01-06T03:27:36;4.63;;;1.80;;
8490;SDS011;4282;49.986;7.938;2024-01-06T03:30:05;3.47;;;2.07;;
8490;SDS011;4282;49.986;7.938;2024-01-06T16:23:41;7.67;;;4.27;;
8490;SDS011;4282;49.986;7.938;2024-01-06T16:28:44;6.37;;;4.00;;
8490;SDS011;4282;49.986;7.938;2024-01-06T17:59:08;9.40;;;4.57;;
8490;SDS011;4282;49.986;7.938;2024-01-06T18:01:37;6.10;;;4.33;;
8490;SDS011;4282;49.986;7.938;2024-01-06T18:04:05;5.97;;;3.93;;
8490;SDS011;4282;49.986;7.938;2024-01-06T18:09:08;4.87;;;3.13;;
8490;SDS011;4282;49.986;7.938;2024-01-06T18:11:37;6.47;;;3.87;;
8490;SDS011;4282;49.986;7.938;2024-01-06T18:21:34;6.30;;;4.70;;
8490;SDS011;4282;49.986;7.938;2024-01-06T18:26:35;5.50;;;3.23;;
8490;SDS011;4282;49.986;7.938;2024-01-06T18:29:03;3.97;;;2.47;;
8490;SDS011;4282;49.986;7.938;2024-01-06T18:39:09;5.43;;;3.80;;
8490;SDS011;4282;49.986;7.938;2024-01-06T18:41:37;4.50;;;2.87;;
8490;SDS011;4282;49.986;7.938;2024-01-06T18:51:50;3.93;;;2.43;;
8490;SDS011;4282;49.986;7.938;2024-01-06T18:54:18;6.27;;;2.97;;
8490;SDS011;4282;49.986;7.938;2024-01-06T19:09:11;5.10;;;3.10;;
8490;SDS011;4282;49.986;7.938;2024-01-06T19:11:40;5.17;;;3.13;;
8490;SDS011;4282;49.986;7.938;2024-01-06T19:16:51;4.67;;;2.80;;
8490;SDS011;4282;49.986;7.938;2024-01-06T19:19:19;5.73;;;3.27;;
8490;SDS011;4282;49.986;7.938;2024-01-06T19:24:12;5.90;;;3.57;;
8490;SDS011;4282;49.986;7.938;2024-01-06T19:42:12;7.77;;;4.70;;
8490;SDS011;4282;49.986;7.938;2024-01-06T19:44:41;6.03;;;4.10;;
8490;SDS011;4282;49.986;7.938;2024-01-06T19:47:09;6.77;;;4.60;;
8490;SDS011;4282;49.986;7.938;2024-01-06T19:55:01;6.13;;;3.87;;
8490;SDS011;4282;49.986;7.938;2024-01-06T19:57:29;4.90;;;4.00;;
8490;SDS011;4282;49.986;7.938;2024-01-06T20:18:55;4.40;;;3.57;;
8490;SDS011;4282;49.986;7.938;2024-01-06T20:21:23;5.53;;;4.03;;
8490;SDS011;4282;49.986;7.938;2024-01-06T20:26:16;4.63;;;3.23;;
8490;SDS011;4282;49.986;7.938;2024-01-06T20:52:18;5.93;;;4.07;;
8490;SDS011;4282;49.986;7.938;2024-01-06T21:00:13;7.23;;;5.20;;
8490;SDS011;4282;49.986;7.938;2024-01-06T21:32:51;7.97;;;4.90;;
8490;SDS011;4282;49.986;7.938;2024-01-06T21:35:25;6.73;;;4.13;;
8490;SDS011;4282;49.986;7.938;2024-01-06T21:45:10;5.93;;;3.53;;
8490;SDS011;4282;49.986;7.938;2024-01-06T21:47:39;5.70;;;3.27;;
8490;SDS011;4282;49.986;7.938;2024-01-06T21:50:07;6.57;;;3.33;;
8490;SDS011;4282;49.986;7.938;2024-01-06T22:05:27;5.47;;;3.53;;
8490;SDS011;4282;49.986;7.938;2024-01-06T22:14:30;7.83;;;4.43;;
8490;SDS011;4282;49.986;7.938;2024-01-06T22:21:51;6.23;;;4.63;;
8490;SDS011;4282;49.986;7.938;2024-01-06T22:37:09;6.20;;;4.17;;
8490;SDS011;4282;49.986;7.938;2024-01-06T22:45:44;6.43;;;3.57;;
8490;SDS011;4282;49.986;7.938;2024-01-06T22:48:12;7.23;;;3.43;;
8490;SDS011;4282;49.986;7.938;2024-01-06T22:50:40;4.23;;;3.57;;
8490;SDS011;4282;49.986;7.938;2024-01-06T22:53:09;5.47;;;3.60;;
8490;SDS011;4282;49.986;7.938;2024-01-06T22:55:37;5.30;;;3.30;;
8490;SDS011;4282;49.986;7.938;2024-01-06T22:58:05;5.97;;;3.60;;
8490;SDS011;4282;49.986;7.938;2024-01-06T23:10:31;4.50;;;2.90;;
8490;SDS011;4282;49.986;7.938;2024-01-06T23:12:59;6.57;;;4.30;;
8490;SDS011;4282;49.986;7.938;2024-01-06T23:15:28;6.03;;;3.27;;
8490;SDS011;4282;49.986;7.938;2024-01-06T23:34:25;6.10;;;4.87;;
8490;SDS011;4282;49.986;7.938;2024-01-06T23:50:20;8.17;;;5.07;;
8490;SDS011;4282;49.986;7.938;2024-01-06T23:52:48;6.30;;;4.80;;
8490;SDS011;4282;49.986;7.938;2024-01-06T23:55:17;7.77;;;4.53;;
